Keyhole, WY

10:44 PM MDT on March 28, 2015 (GMT -0600)
East Upton | | Change Station
CLOSE
Current Station
Personal Weather Station
Location: Upton, WY
Elevation: 4318 ft
Nearby Weather Stations
Active Advisory: High Wind Warning Active Notice: Record Report, Local Storm Report

Elev 4318 ft 44.11 °N, 104.62 °W | Updated 5 seconds ago

Partly Cloudy
Partly Cloudy
50.2 °F
Feels Like 50.2 °F
N
15.2
Wind Variable Wind from SSE
Gusts 15.2 mph

Today
High -- | Low -- °F
--% Chance of Precip.
Yesterday
High -- | Low -- °F
Precip. -- in
6:48 AM 7:21 PM
Waxing Gibbous, 68% visible
Pressure 29.93 in
Visibility 10.0 miles
Clouds Mostly Cloudy 9000 ft
Overcast 11000 ft
Dew Point 16 °F
Humidity 25%
Rainfall 0.00 in
Snow Depth Not available.
UV 0.0 out of 12
Pollen 7.50 out of 12
Air Quality Not available.
Flu Activity Not available.
METAR KW43 290435Z AUTO 31016G23KT 10SM BKN090 OVC110 11/M09 A2993 RMK AO2

More Conditions Fewer Conditions

Pressure 29.93 in
Visibility 10.0 miles
Clouds Mostly Cloudy 9000 ft
Overcast 11000 ft
Dew Point 16 °F
Humidity 25%
Rainfall 0.00 in
Snow Depth Not available.
UV 0.0 out of 12
Pollen 7.50 out of 12
Air Quality Not available.
Flu Activity Not available.
METAR KW43 290435Z AUTO 31016G23KT 10SM BKN090 OVC110 11/M09 A2993 RMK AO2

More Conditions Fewer Conditions

10-Day Weather Forecast

Almanac

Astronomy

Mar. 28, 2015 Rise Set
Actual Time
Civil Twilight
Nautical Twilight
Astronomical Twilight
Moon
Length of Visible Light
Length of Day
Tomorrow will be .
, % of the Moon is Illuminated

Today's Extremes

State Highs State Lows

Community

WunderPhotos

Upload Photos

1,809,186 photos uploaded!

WunderBlogs® & News

Nearby

Air Quality

  Air Quality AQ Index Pollutant
Not available.

Snow Depth

Station Depth Elevation

Earthquake Activity

City Distance Mag. Time & Date
Minimum magnitude displayed is 2.5.

Coastal Water Temperatures

Place Temperature

Stations

Nearby Weather Stations

Station Location Temp. Windchill Dew Point Humidity Wind Precip. Elev Updated Type
                   
High Wind Warning
Statement as of 6:20 PM MDT on March 28, 2015

... High Wind Warning remains in effect until midnight MDT
tonight...

A High Wind Warning remains in effect until midnight MDT tonight.

* Timing... this evening.

* Winds... northwest 30 to 40 mph with gusts up to 60 mph.

* Impacts... high winds can blow down large trees... and damage
roofs... small outbuildings... and signs. Sudden wind gusts can
cause drivers to lose control... especially in lightweight or
high profile vehicles. Strong winds can cause blowing dust...
reduced visibility... and flying debris.

Precautionary/preparedness actions...

A High Wind Warning means 40 mph winds... or gusts over 60 mph...
are expected or occurring.